sensor_id;sensor_type;location;lat;lon;timestamp;P1;durP1;ratioP1;P2;durP2;ratioP2
727;SDS011;347;48.780;9.158;2023-08-06T00:00:51;7.90;;;7.50;;
727;SDS011;347;48.780;9.158;2023-08-06T00:03:16;7.73;;;7.33;;
727;SDS011;347;48.780;9.158;2023-08-06T00:05:42;8.90;;;8.40;;
727;SDS011;347;48.780;9.158;2023-08-06T00:08:08;8.77;;;8.03;;
727;SDS011;347;48.780;9.158;2023-08-06T00:10:33;7.60;;;7.30;;
727;SDS011;347;48.780;9.158;2023-08-06T00:12:59;8.07;;;7.67;;
727;SDS011;347;48.780;9.158;2023-08-06T00:15:24;8.47;;;8.00;;
727;SDS011;347;48.780;9.158;2023-08-06T00:17:50;7.97;;;7.57;;
727;SDS011;347;48.780;9.158;2023-08-06T00:20:15;7.80;;;7.40;;
727;SDS011;347;48.780;9.158;2023-08-06T00:22:41;8.03;;;7.70;;
727;SDS011;347;48.780;9.158;2023-08-06T00:25:07;8.80;;;8.30;;
727;SDS011;347;48.780;9.158;2023-08-06T00:27:33;8.40;;;8.00;;
727;SDS011;347;48.780;9.158;2023-08-06T00:29:58;8.67;;;8.17;;
727;SDS011;347;48.780;9.158;2023-08-06T00:32:24;8.23;;;7.83;;
727;SDS011;347;48.780;9.158;2023-08-06T00:34:49;7.67;;;7.27;;
727;SDS011;347;48.780;9.158;2023-08-06T00:37:18;7.80;;;7.40;;
727;SDS011;347;48.780;9.158;2023-08-06T00:39:43;7.43;;;7.10;;
727;SDS011;347;48.780;9.158;2023-08-06T00:42:10;7.80;;;7.40;;
727;SDS011;347;48.780;9.158;2023-08-06T00:44:36;7.33;;;6.83;;
727;SDS011;347;48.780;9.158;2023-08-06T00:47:02;7.63;;;7.33;;
727;SDS011;347;48.780;9.158;2023-08-06T00:49:28;7.00;;;6.70;;
727;SDS011;347;48.780;9.158;2023-08-06T00:51:53;7.33;;;7.00;;
727;SDS011;347;48.780;9.158;2023-08-06T00:54:21;7.93;;;7.53;;
727;SDS011;347;48.780;9.158;2023-08-06T00:56:47;7.77;;;7.40;;
727;SDS011;347;48.780;9.158;2023-08-06T00:59:13;8.23;;;7.80;;
727;SDS011;347;48.780;9.158;2023-08-06T01:01:39;7.67;;;7.37;;
727;SDS011;347;48.780;9.158;2023-08-06T01:04:04;8.00;;;7.70;;
727;SDS011;347;48.780;9.158;2023-08-06T01:06:35;8.07;;;7.57;;
727;SDS011;347;48.780;9.158;2023-08-06T01:09:17;7.70;;;7.40;;
727;SDS011;347;48.780;9.158;2023-08-06T01:15:03;7.83;;;7.43;;
727;SDS011;347;48.780;9.158;2023-08-06T01:17:43;8.37;;;7.87;;
727;SDS011;347;48.780;9.158;2023-08-06T01:20:10;8.20;;;7.90;;
727;SDS011;347;48.780;9.158;2023-08-06T01:22:35;8.70;;;8.30;;
727;SDS011;347;48.780;9.158;2023-08-06T01:25:01;8.70;;;8.20;;
727;SDS011;347;48.780;9.158;2023-08-06T01:27:28;8.27;;;7.97;;
727;SDS011;347;48.780;9.158;2023-08-06T01:30:03;8.90;;;8.50;;
727;SDS011;347;48.780;9.158;2023-08-06T01:32:37;8.50;;;8.10;;
727;SDS011;347;48.780;9.158;2023-08-06T01:35:07;8.60;;;8.10;;
727;SDS011;347;48.780;9.158;2023-08-06T01:37:36;8.20;;;7.90;;
727;SDS011;347;48.780;9.158;2023-08-06T01:40:05;7.60;;;7.30;;
727;SDS011;347;48.780;9.158;2023-08-06T01:42:34;8.27;;;7.90;;
727;SDS011;347;48.780;9.158;2023-08-06T01:45:00;7.37;;;6.93;;
727;SDS011;347;48.780;9.158;2023-08-06T01:47:25;7.60;;;7.30;;
727;SDS011;347;48.780;9.158;2023-08-06T01:49:51;7.67;;;7.37;;
727;SDS011;347;48.780;9.158;2023-08-06T01:52:16;8.30;;;7.80;;
727;SDS011;347;48.780;9.158;2023-08-06T01:54:42;7.80;;;7.50;;
727;SDS011;347;48.780;9.158;2023-08-06T01:57:07;8.63;;;8.23;;
727;SDS011;347;48.780;9.158;2023-08-06T01:59:33;7.30;;;6.80;;
727;SDS011;347;48.780;9.158;2023-08-06T02:01:58;7.10;;;6.70;;
727;SDS011;347;48.780;9.158;2023-08-06T02:04:24;7.40;;;7.10;;
727;SDS011;347;48.780;9.158;2023-08-06T02:06:49;7.70;;;7.40;;
727;SDS011;347;48.780;9.158;2023-08-06T02:09:15;7.70;;;7.37;;
727;SDS011;347;48.780;9.158;2023-08-06T02:11:40;7.77;;;7.37;;
727;SDS011;347;48.780;9.158;2023-08-06T02:14:06;7.60;;;7.17;;
727;SDS011;347;48.780;9.158;2023-08-06T02:16:31;8.70;;;8.13;;
727;SDS011;347;48.780;9.158;2023-08-06T02:18:57;8.07;;;7.57;;
727;SDS011;347;48.780;9.158;2023-08-06T02:21:22;7.33;;;7.03;;
727;SDS011;347;48.780;9.158;2023-08-06T02:23:48;7.57;;;7.07;;
727;SDS011;347;48.780;9.158;2023-08-06T02:26:13;8.10;;;7.70;;
727;SDS011;347;48.780;9.158;2023-08-06T02:28:39;7.27;;;6.97;;
727;SDS011;347;48.780;9.158;2023-08-06T02:31:04;7.37;;;7.07;;
727;SDS011;347;48.780;9.158;2023-08-06T02:33:31;8.40;;;7.90;;
727;SDS011;347;48.780;9.158;2023-08-06T02:36:00;7.13;;;6.80;;
727;SDS011;347;48.780;9.158;2023-08-06T02:38:28;7.30;;;7.00;;
727;SDS011;347;48.780;9.158;2023-08-06T02:40:54;8.40;;;8.00;;
727;SDS011;347;48.780;9.158;2023-08-06T02:43:19;8.03;;;7.50;;
727;SDS011;347;48.780;9.158;2023-08-06T02:45:45;7.97;;;7.53;;
727;SDS011;347;48.780;9.158;2023-08-06T02:48:11;7.60;;;7.20;;
727;SDS011;347;48.780;9.158;2023-08-06T02:50:40;8.10;;;7.60;;
727;SDS011;347;48.780;9.158;2023-08-06T02:53:06;7.17;;;6.80;;
727;SDS011;347;48.780;9.158;2023-08-06T02:55:32;7.60;;;7.20;;
727;SDS011;347;48.780;9.158;2023-08-06T02:57:59;7.30;;;6.93;;
727;SDS011;347;48.780;9.158;2023-08-06T03:00:25;7.40;;;7.07;;
727;SDS011;347;48.780;9.158;2023-08-06T03:02:50;7.83;;;7.43;;
727;SDS011;347;48.780;9.158;2023-08-06T03:05:16;7.70;;;7.40;;
727;SDS011;347;48.780;9.158;2023-08-06T03:07:41;7.77;;;7.47;;
727;SDS011;347;48.780;9.158;2023-08-06T03:10:07;7.20;;;6.87;;
727;SDS011;347;48.780;9.158;2023-08-06T03:12:33;7.70;;;7.40;;
727;SDS011;347;48.780;9.158;2023-08-06T03:14:58;7.17;;;6.80;;
727;SDS011;347;48.780;9.158;2023-08-06T03:17:24;7.53;;;7.23;;
727;SDS011;347;48.780;9.158;2023-08-06T03:19:49;7.43;;;7.13;;
727;SDS011;347;48.780;9.158;2023-08-06T03:22:15;7.97;;;7.57;;
727;SDS011;347;48.780;9.158;2023-08-06T03:24:40;6.73;;;6.50;;
727;SDS011;347;48.780;9.158;2023-08-06T03:27:06;7.87;;;7.50;;
727;SDS011;347;48.780;9.158;2023-08-06T03:29:31;7.40;;;7.10;;
727;SDS011;347;48.780;9.158;2023-08-06T03:31:57;7.17;;;6.87;;
727;SDS011;347;48.780;9.158;2023-08-06T03:34:22;7.20;;;6.80;;
727;SDS011;347;48.780;9.158;2023-08-06T03:36:48;8.17;;;7.47;;
727;SDS011;347;48.780;9.158;2023-08-06T03:39:13;7.07;;;6.77;;
727;SDS011;347;48.780;9.158;2023-08-06T03:41:39;6.70;;;6.40;;
727;SDS011;347;48.780;9.158;2023-08-06T03:44:05;6.80;;;6.50;;
727;SDS011;347;48.780;9.158;2023-08-06T03:46:30;6.87;;;6.57;;
727;SDS011;347;48.780;9.158;2023-08-06T03:49:01;6.77;;;6.47;;
727;SDS011;347;48.780;9.158;2023-08-06T03:51:27;7.10;;;6.50;;
727;SDS011;347;48.780;9.158;2023-08-06T03:53:53;6.87;;;6.50;;
727;SDS011;347;48.780;9.158;2023-08-06T03:56:19;6.90;;;6.50;;
727;SDS011;347;48.780;9.158;2023-08-06T03:58:44;7.97;;;7.57;;
727;SDS011;347;48.780;9.158;2023-08-06T04:01:10;6.90;;;6.50;;
727;SDS011;347;48.780;9.158;2023-08-06T04:03:35;6.80;;;6.50;;
727;SDS011;347;48.780;9.158;2023-08-06T04:06:02;6.80;;;6.30;;
727;SDS011;347;48.780;9.158;2023-08-06T04:08:28;6.47;;;6.17;;
727;SDS011;347;48.780;9.158;2023-08-06T04:10:53;6.43;;;6.13;;
727;SDS011;347;48.780;9.158;2023-08-06T04:13:19;6.83;;;6.53;;
727;SDS011;347;48.780;9.158;2023-08-06T04:15:45;6.30;;;6.10;;
727;SDS011;347;48.780;9.158;2023-08-06T04:18:12;7.10;;;6.70;;
727;SDS011;347;48.780;9.158;2023-08-06T04:20:44;6.10;;;5.90;;
727;SDS011;347;48.780;9.158;2023-08-06T04:23:10;6.87;;;6.57;;
727;SDS011;347;48.780;9.158;2023-08-06T04:25:35;6.73;;;6.43;;
727;SDS011;347;48.780;9.158;2023-08-06T04:28:01;7.07;;;6.70;;
727;SDS011;347;48.780;9.158;2023-08-06T04:30:26;7.10;;;6.70;;
727;SDS011;347;48.780;9.158;2023-08-06T04:32:52;6.50;;;6.20;;
727;SDS011;347;48.780;9.158;2023-08-06T04:35:18;7.30;;;6.90;;
727;SDS011;347;48.780;9.158;2023-08-06T04:37:43;6.90;;;6.60;;
727;SDS011;347;48.780;9.158;2023-08-06T04:40:09;7.73;;;7.23;;
727;SDS011;347;48.780;9.158;2023-08-06T04:42:35;6.63;;;6.30;;
727;SDS011;347;48.780;9.158;2023-08-06T04:45:03;7.00;;;6.60;;
727;SDS011;347;48.780;9.158;2023-08-06T04:47:29;7.30;;;7.00;;
727;SDS011;347;48.780;9.158;2023-08-06T04:49:55;7.00;;;6.60;;
727;SDS011;347;48.780;9.158;2023-08-06T04:52:20;7.63;;;7.27;;
727;SDS011;347;48.780;9.158;2023-08-06T04:54:46;6.93;;;6.33;;
727;SDS011;347;48.780;9.158;2023-08-06T04:57:11;7.00;;;6.60;;
727;SDS011;347;48.780;9.158;2023-08-06T04:59:37;6.80;;;6.40;;
727;SDS011;347;48.780;9.158;2023-08-06T05:02:03;6.33;;;6.03;;
727;SDS011;347;48.780;9.158;2023-08-06T05:04:29;6.53;;;5.97;;
727;SDS011;347;48.780;9.158;2023-08-06T05:06:54;6.20;;;5.90;;
727;SDS011;347;48.780;9.158;2023-08-06T05:09:20;6.40;;;6.00;;
727;SDS011;347;48.780;9.158;2023-08-06T05:11:46;6.97;;;6.57;;
727;SDS011;347;48.780;9.158;2023-08-06T05:14:12;5.93;;;5.73;;
727;SDS011;347;48.780;9.158;2023-08-06T05:16:38;5.60;;;5.40;;
727;SDS011;347;48.780;9.158;2023-08-06T05:19:03;5.93;;;5.73;;
727;SDS011;347;48.780;9.158;2023-08-06T05:21:29;6.77;;;6.30;;
727;SDS011;347;48.780;9.158;2023-08-06T05:23:54;6.37;;;6.07;;
727;SDS011;347;48.780;9.158;2023-08-06T05:26:20;5.73;;;5.43;;
727;SDS011;347;48.780;9.158;2023-08-06T05:28:45;5.80;;;5.50;;
727;SDS011;347;48.780;9.158;2023-08-06T05:31:11;7.53;;;5.80;;
727;SDS011;347;48.780;9.158;2023-08-06T05:33:37;6.40;;;5.83;;
727;SDS011;347;48.780;9.158;2023-08-06T05:36:03;5.80;;;5.50;;
727;SDS011;347;48.780;9.158;2023-08-06T05:38:29;5.67;;;5.20;;
727;SDS011;347;48.780;9.158;2023-08-06T05:40:55;5.60;;;5.37;;
727;SDS011;347;48.780;9.158;2023-08-06T05:43:21;5.63;;;5.40;;
727;SDS011;347;48.780;9.158;2023-08-06T05:45:48;6.37;;;6.07;;
727;SDS011;347;48.780;9.158;2023-08-06T05:48:14;5.87;;;5.67;;
727;SDS011;347;48.780;9.158;2023-08-06T05:50:40;5.60;;;5.40;;
727;SDS011;347;48.780;9.158;2023-08-06T05:53:05;5.53;;;5.30;;
727;SDS011;347;48.780;9.158;2023-08-06T20:50:10;5.87;;;5.57;;
727;SDS011;347;48.780;9.158;2023-08-06T20:52:35;6.97;;;6.67;;
727;SDS011;347;48.780;9.158;2023-08-06T20:55:01;5.70;;;5.40;;
727;SDS011;347;48.780;9.158;2023-08-06T20:57:26;5.67;;;5.37;;
727;SDS011;347;48.780;9.158;2023-08-06T20:59:52;5.70;;;5.50;;
727;SDS011;347;48.780;9.158;2023-08-06T21:02:17;6.00;;;5.73;;
727;SDS011;347;48.780;9.158;2023-08-06T21:04:44;6.13;;;5.60;;
727;SDS011;347;48.780;9.158;2023-08-06T21:07:13;6.03;;;5.73;;
727;SDS011;347;48.780;9.158;2023-08-06T21:09:39;5.77;;;5.47;;
727;SDS011;347;48.780;9.158;2023-08-06T21:12:05;6.00;;;5.70;;
727;SDS011;347;48.780;9.158;2023-08-06T21:14:31;5.90;;;5.60;;
727;SDS011;347;48.780;9.158;2023-08-06T21:16:57;5.80;;;5.50;;
727;SDS011;347;48.780;9.158;2023-08-06T21:19:22;5.03;;;4.83;;
727;SDS011;347;48.780;9.158;2023-08-06T21:21:48;5.80;;;5.50;;
727;SDS011;347;48.780;9.158;2023-08-06T21:24:13;5.77;;;5.37;;
727;SDS011;347;48.780;9.158;2023-08-06T21:26:39;5.57;;;5.37;;
727;SDS011;347;48.780;9.158;2023-08-06T21:29:04;6.23;;;6.03;;
727;SDS011;347;48.780;9.158;2023-08-06T21:31:30;5.57;;;5.37;;
727;SDS011;347;48.780;9.158;2023-08-06T21:33:55;5.13;;;4.83;;
727;SDS011;347;48.780;9.158;2023-08-06T21:36:21;5.47;;;5.27;;
727;SDS011;347;48.780;9.158;2023-08-06T21:38:49;5.27;;;5.10;;
727;SDS011;347;48.780;9.158;2023-08-06T21:41:15;5.23;;;4.93;;
727;SDS011;347;48.780;9.158;2023-08-06T21:43:44;6.03;;;5.63;;
727;SDS011;347;48.780;9.158;2023-08-06T21:46:12;5.80;;;5.40;;
727;SDS011;347;48.780;9.158;2023-08-06T21:48:41;5.60;;;5.40;;
727;SDS011;347;48.780;9.158;2023-08-06T21:51:09;5.33;;;5.13;;
727;SDS011;347;48.780;9.158;2023-08-06T21:53:37;5.80;;;5.60;;
727;SDS011;347;48.780;9.158;2023-08-06T21:56:04;5.77;;;5.57;;
727;SDS011;347;48.780;9.158;2023-08-06T21:58:34;6.20;;;5.90;;
727;SDS011;347;48.780;9.158;2023-08-06T22:01:01;6.60;;;6.30;;
727;SDS011;347;48.780;9.158;2023-08-06T22:03:29;6.20;;;5.67;;
727;SDS011;347;48.780;9.158;2023-08-06T22:05:56;6.10;;;5.90;;
727;SDS011;347;48.780;9.158;2023-08-06T22:08:21;6.30;;;5.97;;
727;SDS011;347;48.780;9.158;2023-08-06T22:10:47;6.00;;;5.70;;
727;SDS011;347;48.780;9.158;2023-08-06T22:13:14;5.57;;;5.37;;
727;SDS011;347;48.780;9.158;2023-08-06T22:15:39;5.47;;;5.27;;
727;SDS011;347;48.780;9.158;2023-08-06T22:18:05;6.07;;;5.87;;
727;SDS011;347;48.780;9.158;2023-08-06T22:20:31;6.27;;;5.97;;
727;SDS011;347;48.780;9.158;2023-08-06T22:22:57;6.00;;;5.80;;
727;SDS011;347;48.780;9.158;2023-08-06T22:25:23;6.47;;;6.20;;
727;SDS011;347;48.780;9.158;2023-08-06T22:27:49;6.73;;;6.43;;
727;SDS011;347;48.780;9.158;2023-08-06T22:30:15;6.20;;;6.00;;
727;SDS011;347;48.780;9.158;2023-08-06T22:32:41;6.70;;;6.50;;
727;SDS011;347;48.780;9.158;2023-08-06T22:35:06;6.13;;;5.83;;
727;SDS011;347;48.780;9.158;2023-08-06T22:37:32;5.87;;;5.67;;
727;SDS011;347;48.780;9.158;2023-08-06T22:39:58;6.90;;;6.60;;
727;SDS011;347;48.780;9.158;2023-08-06T22:42:24;8.20;;;6.37;;
727;SDS011;347;48.780;9.158;2023-08-06T22:44:51;6.33;;;6.10;;
727;SDS011;347;48.780;9.158;2023-08-06T22:47:16;6.00;;;5.80;;
727;SDS011;347;48.780;9.158;2023-08-06T22:49:42;9.87;;;7.47;;
727;SDS011;347;48.780;9.158;2023-08-06T22:52:12;7.10;;;6.80;;
727;SDS011;347;48.780;9.158;2023-08-06T22:54:38;7.07;;;6.70;;
727;SDS011;347;48.780;9.158;2023-08-06T22:57:04;7.50;;;7.20;;
727;SDS011;347;48.780;9.158;2023-08-06T22:59:33;6.80;;;6.40;;
727;SDS011;347;48.780;9.158;2023-08-06T23:01:59;6.70;;;6.40;;
727;SDS011;347;48.780;9.158;2023-08-06T23:04:25;5.93;;;5.67;;
727;SDS011;347;48.780;9.158;2023-08-06T23:06:51;8.60;;;6.33;;
727;SDS011;347;48.780;9.158;2023-08-06T23:09:17;6.07;;;5.83;;
727;SDS011;347;48.780;9.158;2023-08-06T23:11:42;6.77;;;6.47;;
727;SDS011;347;48.780;9.158;2023-08-06T23:14:08;42.00;;;14.97;;
727;SDS011;347;48.780;9.158;2023-08-06T23:16:33;8.93;;;7.90;;
727;SDS011;347;48.780;9.158;2023-08-06T23:18:59;7.97;;;7.37;;
727;SDS011;347;48.780;9.158;2023-08-06T23:21:24;7.83;;;7.43;;
727;SDS011;347;48.780;9.158;2023-08-06T23:23:50;6.63;;;6.33;;
727;SDS011;347;48.780;9.158;2023-08-06T23:26:16;6.63;;;6.33;;
727;SDS011;347;48.780;9.158;2023-08-06T23:28:41;7.03;;;6.80;;
727;SDS011;347;48.780;9.158;2023-08-06T23:31:09;6.20;;;5.90;;
727;SDS011;347;48.780;9.158;2023-08-06T23:33:38;6.97;;;6.60;;
727;SDS011;347;48.780;9.158;2023-08-06T23:36:04;6.80;;;6.60;;
727;SDS011;347;48.780;9.158;2023-08-06T23:38:29;6.70;;;6.40;;
727;SDS011;347;48.780;9.158;2023-08-06T23:40:55;6.90;;;6.53;;
727;SDS011;347;48.780;9.158;2023-08-06T23:43:20;7.17;;;6.57;;
727;SDS011;347;48.780;9.158;2023-08-06T23:45:46;7.17;;;6.73;;
727;SDS011;347;48.780;9.158;2023-08-06T23:48:12;6.83;;;6.53;;
727;SDS011;347;48.780;9.158;2023-08-06T23:50:37;6.47;;;6.07;;
727;SDS011;347;48.780;9.158;2023-08-06T23:53:03;7.37;;;6.87;;
727;SDS011;347;48.780;9.158;2023-08-06T23:55:29;5.93;;;5.73;;
727;SDS011;347;48.780;9.158;2023-08-06T23:57:55;6.27;;;6.00;;
